Time;durP1;ratioP1;P1;durP2;ratioP2;P2;SDS_P1;SDS_P2;PMS_P1;PMS_P2;Temp;Humidity;BMP_temperature;BMP_pressure;BME280_temperature;BME280_humidity;BME280_pressure;Samples;Min_cycle;Max_cycle;Signal;HPM_P1;HPM_P2
2022/07/07 00:02:19;;;;;;;18.83;5.70;;;16.60;90.50;;;;;;5004495;28;20200;-77
2022/07/07 00:04:45;;;;;;;20.93;5.93;;;16.60;90.50;;;;;;5009164;28;20246;-78
2022/07/07 00:07:10;;;;;;;15.80;4.90;;;16.60;90.40;;;;;;5018725;28;20203;-76
2022/07/07 00:09:37;;;;;;;20.33;5.97;;;16.60;90.40;;;;;;5023224;28;20203;-80
2022/07/07 00:12:02;;;;;;;20.10;6.10;;;16.60;90.50;;;;;;5020425;28;20215;-78
2022/07/07 00:14:28;;;;;;;20.00;6.40;;;16.70;90.40;;;;;;5014542;28;20655;-78
2022/07/07 00:16:54;;;;;;;18.53;5.77;;;16.70;90.30;;;;;;5017001;28;20427;-78
2022/07/07 00:19:22;;;;;;;20.63;5.83;;;16.70;90.30;;;;;;5013622;28;20222;-77
2022/07/07 00:21:47;;;;;;;18.67;5.47;;;16.70;90.40;;;;;;5023168;28;20203;-77
2022/07/07 00:24:13;;;;;;;11.87;4.23;;;16.60;90.60;;;;;;5009903;28;20180;-76
2022/07/07 00:26:38;;;;;;;9.57;3.43;;;16.60;90.50;;;;;;5016031;28;20204;-80
2022/07/07 00:29:04;;;;;;;17.40;5.77;;;16.70;90.30;;;;;;5016432;28;20350;-80
2022/07/07 00:31:29;;;;;;;16.97;5.53;;;16.70;90.30;;;;;;5022853;28;20322;-81
2022/07/07 00:33:55;;;;;;;17.37;5.30;;;16.70;90.30;;;;;;5009588;28;20562;-80
2022/07/07 00:36:20;;;;;;;19.80;5.27;;;16.70;90.10;;;;;;5023616;28;20206;-80
2022/07/07 00:38:47;;;;;;;17.27;5.83;;;16.70;90.20;;;;;;5025762;28;20208;-80
2022/07/07 00:41:13;;;;;;;50.13;17.80;;;16.70;90.10;;;;;;5019750;28;20200;-81
2022/07/07 00:43:41;;;;;;;14.20;4.67;;;16.70;90.20;;;;;;5025187;28;20504;-77
2022/07/07 00:46:07;;;;;;;59.83;20.50;;;16.70;90.30;;;;;;5023130;28;20203;-77
2022/07/07 00:48:36;;;;;;;14.83;5.17;;;16.70;90.40;;;;;;5011727;28;20216;-67
2022/07/07 00:51:03;;;;;;;39.27;13.80;;;16.70;90.50;;;;;;5021850;28;20204;-69
2022/07/07 00:53:29;;;;;;;17.70;5.73;;;16.70;90.90;;;;;;5020562;28;20573;-68
2022/07/07 00:55:54;;;;;;;18.60;6.00;;;16.70;90.60;;;;;;5023968;28;20306;-68
2022/07/07 00:58:20;;;;;;;19.83;5.07;;;16.70;91.10;;;;;;5003691;28;20870;-67
2022/07/07 01:00:46;;;;;;;15.67;5.07;;;16.80;90.90;;;;;;5024326;28;20284;-70
2022/07/07 01:03:12;;;;;;;18.67;6.33;;;16.60;91.20;;;;;;5007683;28;20208;-69
2022/07/07 01:05:40;;;;;;;15.87;5.70;;;16.70;91.00;;;;;;5024709;28;20562;-68
2022/07/07 01:08:08;;;;;;;15.17;5.10;;;16.60;91.50;;;;;;5007537;28;20204;-68
2022/07/07 01:10:34;;;;;;;19.33;6.27;;;16.40;92.70;;;;;;5024527;28;20254;-68
2022/07/07 01:13:03;;;;;;;13.33;4.23;;;16.30;94.50;;;;;;5011534;28;20286;-68
2022/07/07 01:15:29;;;;;;;12.27;4.13;;;15.90;95.70;;;;;;5027757;28;20198;-68
2022/07/07 01:17:55;;;;;;;21.23;6.43;;;15.70;97.60;;;;;;5011150;28;20204;-69
2022/07/07 01:20:21;;;;;;;22.53;7.37;;;15.60;99.70;;;;;;5027775;28;20282;-69
2022/07/07 01:22:51;;;;;;;22.40;6.43;;;15.70;99.90;;;;;;5015749;28;20238;-68
2022/07/07 01:25:16;;;;;;;21.47;6.70;;;15.60;99.90;;;;;;5024694;28;20283;-68
2022/07/07 01:27:42;;;;;;;16.27;5.90;;;15.50;99.90;;;;;;5016587;28;21061;-69
2022/07/07 01:30:08;;;;;;;16.00;5.07;;;15.40;99.90;;;;;;5025039;28;20293;-81
2022/07/07 01:32:34;;;;;;;24.07;9.57;;;15.30;99.90;;;;;;5013918;28;20235;-66
2022/07/07 01:34:59;;;;;;;16.17;5.57;;;15.20;99.90;;;;;;5027676;28;20240;-69
2022/07/07 01:37:25;;;;;;;15.40;5.47;;;15.00;99.90;;;;;;5014242;28;20239;-68
2022/07/07 01:39:51;;;;;;;14.80;4.77;;;14.90;99.90;;;;;;5027169;28;20226;-66
2022/07/07 01:42:17;;;;;;;18.50;5.70;;;14.70;99.90;;;;;;5014258;28;20220;-66
2022/07/07 01:44:44;;;;;;;19.23;6.00;;;14.50;99.90;;;;;;5027230;28;20187;-67
2022/07/07 01:47:12;;;;;;;19.20;6.20;;;14.30;99.90;;;;;;5015848;28;20231;-67
2022/07/07 01:49:38;;;;;;;19.80;5.93;;;14.40;99.90;;;;;;5024987;28;20226;-67
2022/07/07 01:52:05;;;;;;;15.57;5.00;;;14.40;99.90;;;;;;5016090;28;20216;-68
2022/07/07 01:54:32;;;;;;;20.10;5.90;;;14.40;99.90;;;;;;5027014;28;20202;-68
2022/07/07 01:56:57;;;;;;;15.17;5.13;;;14.60;99.90;;;;;;5016961;28;20231;-68
2022/07/07 01:59:24;;;;;;;25.00;7.23;;;14.50;99.90;;;;;;5026549;28;20219;-68
2022/07/07 02:01:50;;;;;;;26.47;9.23;;;14.50;99.90;;;;;;5025498;28;20208;-68
2022/07/07 02:04:16;;;;;;;27.77;10.30;;;14.40;99.90;;;;;;5012165;28;20203;-69
2022/07/07 02:06:41;;;;;;;81.53;75.57;;;14.40;99.90;;;;;;5019100;28;20208;-68
2022/07/07 02:09:07;;;;;;;25.80;8.33;;;14.30;99.90;;;;;;5020184;28;20191;-68
2022/07/07 02:11:34;;;;;;;23.77;7.53;;;14.30;99.90;;;;;;5024787;28;20223;-66
2022/07/07 02:14:00;;;;;;;20.70;7.10;;;14.20;99.90;;;;;;5018255;28;20192;-67
2022/07/07 02:16:26;;;;;;;27.37;14.03;;;14.20;99.90;;;;;;5021269;28;20322;-67
2022/07/07 02:18:54;;;;;;;27.97;8.27;;;14.00;99.90;;;;;;5020004;28;20896;-67
2022/07/07 02:21:20;;;;;;;19.70;6.70;;;14.00;99.90;;;;;;5025137;28;20249;-69
2022/07/07 02:23:47;;;;;;;25.03;8.23;;;14.00;99.90;;;;;;5007749;28;20184;-67
2022/07/07 02:26:13;;;;;;;65.37;22.17;;;14.10;99.90;;;;;;5021942;28;20291;-68
2022/07/07 02:28:39;;;;;;;8.63;3.70;;;14.10;99.90;;;;;;5014170;28;20194;-68
2022/07/07 02:31:05;;;;;;;57.53;21.47;;;14.00;99.90;;;;;;5026196;28;20625;-68
2022/07/07 02:33:32;;;;;;;19.63;6.73;;;14.00;99.90;;;;;;5009767;28;20291;-69
2022/07/07 02:35:57;;;;;;;15.70;5.03;;;13.90;99.90;;;;;;5025943;28;20249;-68
2022/07/07 02:38:23;;;;;;;18.80;6.77;;;13.80;99.90;;;;;;5019457;28;20583;-67
2022/07/07 02:40:50;;;;;;;18.77;5.33;;;13.80;99.90;;;;;;5026893;28;20203;-67
2022/07/07 02:43:16;;;;;;;18.93;6.53;;;13.70;99.90;;;;;;5012829;28;20226;-67
2022/07/07 02:45:43;;;;;;;19.07;6.63;;;13.70;99.90;;;;;;5026440;28;20662;-68
2022/07/07 02:48:11;;;;;;;22.00;7.17;;;13.70;99.90;;;;;;5016340;28;20212;-68
2022/07/07 02:50:38;;;;;;;17.70;6.43;;;13.70;99.90;;;;;;5026673;28;20195;-68
2022/07/07 02:53:04;;;;;;;18.37;6.53;;;13.70;99.90;;;;;;5015680;28;20251;-67
2022/07/07 02:55:30;;;;;;;19.33;6.97;;;13.70;99.90;;;;;;5022840;28;20246;-66
2022/07/07 02:58:06;;;;;;;22.60;7.53;;;13.70;99.90;;;;;;5015023;28;20693;-67
2022/07/07 03:00:33;;;;;;;19.80;6.63;;;13.70;99.90;;;;;;5011525;28;20230;-67
2022/07/07 03:03:00;;;;;;;17.80;6.27;;;13.80;99.90;;;;;;5023031;28;20211;-68
2022/07/07 03:05:26;;;;;;;18.27;6.23;;;13.80;99.90;;;;;;5026242;28;20211;-68
2022/07/07 03:07:51;;;;;;;21.73;7.93;;;13.80;99.90;;;;;;5014027;28;20215;-67
2022/07/07 03:10:17;;;;;;;24.17;7.80;;;13.80;99.90;;;;;;5025490;28;20228;-67
2022/07/07 03:12:42;;;;;;;27.53;8.70;;;14.00;99.90;;;;;;5015916;28;20219;-66
2022/07/07 03:15:08;;;;;;;24.00;7.83;;;14.00;99.90;;;;;;5024879;28;20187;-68
2022/07/07 03:17:35;;;;;;;25.43;8.97;;;14.10;99.90;;;;;;4992020;28;20204;-68
2022/07/07 03:20:01;;;;;;;21.67;7.57;;;14.10;99.90;;;;;;5023918;28;20295;-67
2022/07/07 03:22:27;;;;;;;24.67;8.83;;;14.00;99.90;;;;;;5020130;28;20253;-67
2022/07/07 03:24:52;;;;;;;17.37;6.73;;;14.10;99.90;;;;;;5014112;28;20195;-67
2022/07/07 03:27:18;;;;;;;19.07;7.43;;;14.10;99.90;;;;;;5023509;28;20536;-67
2022/07/07 03:29:43;;;;;;;23.60;9.20;;;14.10;99.90;;;;;;5022965;28;20180;-66
2022/07/07 03:32:09;;;;;;;22.87;8.67;;;14.10;99.90;;;;;;5023211;28;20293;-69
2022/07/07 03:34:35;;;;;;;26.83;8.20;;;14.20;99.90;;;;;;5011400;28;20627;-70
2022/07/07 03:37:01;;;;;;;154.27;140.83;;;14.20;99.90;;;;;;5019135;28;20287;-69
2022/07/07 03:39:26;;;;;;;139.10;131.07;;;14.20;99.90;;;;;;5016707;28;20657;-67
2022/07/07 03:41:52;;;;;;;65.33;24.00;;;14.10;99.90;;;;;;5021897;28;20237;-68
2022/07/07 03:44:17;;;;;;;14.07;6.20;;;14.00;99.90;;;;;;5017187;28;20187;-67
2022/07/07 03:46:44;;;;;;;12.53;4.97;;;14.00;99.90;;;;;;5025624;28;20195;-68
2022/07/07 03:49:10;;;;;;;16.50;6.30;;;13.90;99.90;;;;;;5025494;28;20252;-67
2022/07/07 03:51:35;;;;;;;12.80;5.20;;;14.00;99.90;;;;;;5025477;28;20212;-67
2022/07/07 03:54:01;;;;;;;14.33;5.23;;;14.00;99.90;;;;;;5008151;28;20641;-68
2022/07/07 03:56:26;;;;;;;20.30;7.00;;;13.90;99.90;;;;;;5019335;28;20224;-67
2022/07/07 03:58:52;;;;;;;20.00;8.40;;;13.90;99.90;;;;;;5014236;28;20717;-68
2022/07/07 04:01:17;;;;;;;17.37;6.83;;;13.80;99.90;;;;;;5024433;28;20268;-68
2022/07/07 04:03:43;;;;;;;18.23;7.00;;;13.70;99.90;;;;;;5010780;28;20676;-67
2022/07/07 04:06:08;;;;;;;16.07;6.50;;;13.60;99.90;;;;;;5024928;28;20667;-67
2022/07/07 04:08:34;;;;;;;16.20;6.50;;;13.60;99.90;;;;;;5015951;28;20745;-69
2022/07/07 04:10:59;;;;;;;13.90;5.50;;;13.60;99.90;;;;;;5024644;28;20199;-68
2022/07/07 04:13:25;;;;;;;16.03;6.10;;;13.60;99.90;;;;;;5010562;28;20750;-68
2022/07/07 04:15:51;;;;;;;11.07;4.97;;;13.50;99.90;;;;;;5024631;28;20201;-68
2022/07/07 04:18:16;;;;;;;16.27;6.93;;;13.50;99.90;;;;;;5010970;28;20582;-70
2022/07/07 04:20:42;;;;;;;17.37;7.33;;;13.50;99.90;;;;;;5024950;28;20217;-68
2022/07/07 04:23:08;;;;;;;19.57;7.33;;;13.50;99.90;;;;;;5014124;28;20296;-68
2022/07/07 04:25:33;;;;;;;13.17;6.23;;;13.50;99.90;;;;;;5025227;28;20823;-67
2022/07/07 04:27:59;;;;;;;17.70;7.33;;;13.60;99.90;;;;;;5012693;28;20684;-69
2022/07/07 04:30:24;;;;;;;13.03;5.93;;;13.50;99.90;;;;;;5038541;28;20199;-67
2022/07/07 04:32:50;;;;;;;13.43;6.17;;;13.50;99.90;;;;;;5013456;28;20254;-68
2022/07/07 04:35:15;;;;;;;11.90;5.77;;;13.50;99.90;;;;;;5024835;28;20198;-67
2022/07/07 04:37:41;;;;;;;13.70;6.33;;;13.50;99.90;;;;;;5022804;28;20874;-69
2022/07/07 04:40:07;;;;;;;21.97;8.60;;;13.50;99.90;;;;;;5022301;28;20264;-68
2022/07/07 04:42:33;;;;;;;18.63;7.43;;;13.60;99.90;;;;;;5022262;28;20208;-66
2022/07/07 04:44:58;;;;;;;14.90;6.37;;;13.60;99.90;;;;;;5012511;28;20332;-68
2022/07/07 04:47:24;;;;;;;18.37;7.47;;;13.60;99.90;;;;;;5022841;28;20852;-67
2022/07/07 04:49:52;;;;;;;19.07;7.80;;;13.60;99.90;;;;;;5019704;28;20311;-70
2022/07/07 04:52:18;;;;;;;22.17;8.43;;;13.60;99.90;;;;;;5026031;28;20569;-67
2022/07/07 04:54:44;;;;;;;28.00;9.77;;;13.60;99.90;;;;;;5012911;28;20184;-68
2022/07/07 04:57:09;;;;;;;32.40;11.23;;;13.60;99.90;;;;;;5022478;28;20227;-69
2022/07/07 04:59:35;;;;;;;20.43;8.40;;;13.70;99.90;;;;;;5022160;28;20362;-68
2022/07/07 05:02:00;;;;;;;78.50;29.03;;;13.80;99.90;;;;;;5025536;28;20554;-68
2022/07/07 05:04:26;;;;;;;64.70;59.03;;;13.90;99.90;;;;;;5014693;28;20180;-68
2022/07/07 05:06:52;;;;;;;65.33;24.37;;;13.90;99.90;;;;;;5018566;28;20263;-69
2022/07/07 05:09:17;;;;;;;22.00;8.23;;;13.80;99.90;;;;;;5028472;28;20343;-68
2022/07/07 05:11:42;;;;;;;28.27;10.40;;;13.80;99.90;;;;;;5024798;28;20203;-69
2022/07/07 05:14:08;;;;;;;26.10;10.30;;;13.80;99.90;;;;;;5026064;28;20242;-67
2022/07/07 05:16:34;;;;;;;17.80;7.17;;;13.80;99.90;;;;;;5026070;28;20199;-68
2022/07/07 05:18:59;;;;;;;22.27;8.07;;;13.70;99.90;;;;;;5016879;28;20208;-68
2022/07/07 05:21:25;;;;;;;22.73;8.40;;;13.70;99.90;;;;;;5027880;28;20190;-68
2022/07/07 05:23:50;;;;;;;17.10;7.40;;;13.70;99.90;;;;;;5016495;28;20199;-67
2022/07/07 05:26:16;;;;;;;19.33;8.73;;;13.60;99.90;;;;;;5027931;28;20261;-67
2022/07/07 05:28:42;;;;;;;16.27;6.60;;;13.50;99.90;;;;;;5010389;28;20212;-68
2022/07/07 05:31:13;;;;;;;17.93;7.53;;;13.40;99.90;;;;;;5026835;28;20235;-68
2022/07/07 05:33:39;;;;;;;16.20;9.10;;;13.50;99.90;;;;;;5006778;28;20204;-66
2022/07/07 05:36:05;;;;;;;25.03;10.17;;;13.50;99.90;;;;;;5025940;28;20249;-70
2022/07/07 05:38:31;;;;;;;18.03;7.63;;;13.50;99.90;;;;;;5013172;28;20358;-68
2022/07/07 05:40:57;;;;;;;24.60;9.20;;;13.50;99.90;;;;;;5027723;28;20665;-67
2022/07/07 05:43:23;;;;;;;22.20;9.40;;;13.50;99.90;;;;;;5016823;28;20629;-67
2022/07/07 05:45:48;;;;;;;22.40;8.83;;;13.40;99.90;;;;;;5027331;28;20195;-68
2022/07/07 05:48:14;;;;;;;23.43;8.57;;;13.50;99.90;;;;;;5014874;28;20246;-67
2022/07/07 05:50:40;;;;;;;15.80;6.93;;;13.50;99.90;;;;;;5027388;28;20326;-67
2022/07/07 05:53:05;;;;;;;23.07;8.87;;;13.50;99.90;;;;;;5010245;28;20260;-67
2022/07/07 05:55:31;;;;;;;26.97;10.50;;;13.60;99.90;;;;;;5026356;28;20227;-67
2022/07/07 05:57:57;;;;;;;17.97;8.23;;;13.60;99.90;;;;;;5015769;28;20219;-67
2022/07/07 06:00:25;;;;;;;18.37;8.80;;;13.60;99.90;;;;;;5018850;28;20209;-67
2022/07/07 06:02:51;;;;;;;9.67;5.70;;;13.70;99.90;;;;;;5015765;28;20204;-68
2022/07/07 06:05:16;;;;;;;18.93;8.27;;;13.70;99.90;;;;;;5027328;28;20583;-67
2022/07/07 06:07:42;;;;;;;16.97;7.77;;;13.70;99.90;;;;;;5017052;28;20208;-68
2022/07/07 06:10:10;;;;;;;16.90;8.07;;;13.70;99.90;;;;;;5023737;28;20303;-68
2022/07/07 06:12:36;;;;;;;15.57;7.57;;;13.70;99.90;;;;;;5024888;28;20215;-67
2022/07/07 06:15:02;;;;;;;21.47;8.73;;;13.70;99.90;;;;;;5010576;28;20665;-67
2022/07/07 06:17:27;;;;;;;23.70;10.87;;;13.80;99.90;;;;;;5025260;28;20284;-67
2022/07/07 06:19:53;;;;;;;17.93;8.57;;;13.70;99.90;;;;;;5011886;28;20207;-68
2022/07/07 06:22:18;;;;;;;20.53;9.43;;;13.70;99.90;;;;;;5020357;28;20227;-66
2022/07/07 06:24:43;;;;;;;18.77;9.00;;;13.80;99.90;;;;;;5015892;28;20192;-67
2022/07/07 06:27:09;;;;;;;19.53;8.33;;;13.80;99.90;;;;;;5020886;28;20276;-66
2022/07/07 06:29:34;;;;;;;19.50;8.13;;;13.80;99.90;;;;;;5019109;28;20721;-66
2022/07/07 06:32:00;;;;;;;49.40;21.77;;;13.90;99.90;;;;;;5022259;28;20219;-66
2022/07/07 06:34:26;;;;;;;24.50;10.07;;;13.90;99.90;;;;;;5007981;28;20231;-67
2022/07/07 06:36:51;;;;;;;53.00;22.30;;;13.90;99.90;;;;;;5024833;28;20192;-67
2022/07/07 06:39:17;;;;;;;21.23;9.23;;;13.80;99.90;;;;;;5017519;28;20212;-68
2022/07/07 06:41:42;;;;;;;19.03;8.43;;;13.80;99.90;;;;;;5026145;28;20192;-67
2022/07/07 06:44:11;;;;;;;25.27;8.27;;;13.90;99.90;;;;;;5015894;28;20235;-67
2022/07/07 06:46:39;;;;;;;25.53;9.30;;;13.90;99.90;;;;;;5026879;28;20351;-66
2022/07/07 06:49:05;;;;;;;16.77;7.37;;;13.90;99.90;;;;;;5004249;28;20216;-66
2022/07/07 06:51:31;;;;;;;24.93;10.13;;;13.80;99.90;;;;;;5024395;28;20238;-68
2022/07/07 06:53:57;;;;;;;16.97;7.77;;;13.80;99.90;;;;;;5019608;28;20227;-67
2022/07/07 06:56:22;;;;;;;17.47;8.20;;;13.80;99.90;;;;;;5025503;28;20234;-68
2022/07/07 06:58:47;;;;;;;18.37;8.47;;;13.90;99.90;;;;;;5016609;28;20211;-69
2022/07/07 07:01:13;;;;;;;18.50;7.90;;;13.80;99.90;;;;;;5016276;28;20253;-68
2022/07/07 07:03:39;;;;;;;15.33;6.67;;;13.90;99.90;;;;;;5023492;28;20322;-66
2022/07/07 07:06:04;;;;;;;17.30;8.00;;;13.90;99.90;;;;;;5013836;28;20310;-67
2022/07/07 07:08:30;;;;;;;21.63;8.93;;;13.90;99.90;;;;;;5020349;28;20215;-67
2022/07/07 07:10:55;;;;;;;23.20;9.17;;;14.00;99.90;;;;;;5023688;28;20285;-66
2022/07/07 07:13:21;;;;;;;19.07;7.77;;;14.00;99.90;;;;;;5024971;28;20199;-66
2022/07/07 07:15:46;;;;;;;22.70;8.93;;;14.10;99.90;;;;;;5023693;28;20211;-66
2022/07/07 07:18:12;;;;;;;23.83;10.03;;;14.10;99.90;;;;;;5011472;28;20282;-69
2022/07/07 07:20:40;;;;;;;16.80;6.97;;;14.10;99.90;;;;;;5018208;28;20226;-66
2022/07/07 07:23:06;;;;;;;15.00;6.57;;;14.20;99.90;;;;;;5016584;28;20241;-66
2022/07/07 07:25:31;;;;;;;18.60;7.97;;;14.10;99.90;;;;;;5023719;28;20670;-70
2022/07/07 07:27:57;;;;;;;17.17;6.70;;;14.10;99.90;;;;;;5017220;28;20188;-66
2022/07/07 07:30:23;;;;;;;13.07;6.47;;;14.10;99.90;;;;;;5020307;28;20658;-69
2022/07/07 07:32:48;;;;;;;17.80;7.87;;;14.10;99.90;;;;;;5018490;28;20249;-67
2022/07/07 07:35:13;;;;;;;58.67;21.20;;;14.20;99.90;;;;;;5021763;28;20230;-66
2022/07/07 07:37:39;;;;;;;22.60;9.33;;;14.30;99.90;;;;;;5014649;28;20805;-66
2022/07/07 07:40:07;;;;;;;64.90;22.90;;;14.30;99.90;;;;;;5023843;28;20799;-66
2022/07/07 07:42:33;;;;;;;25.77;10.47;;;14.50;99.90;;;;;;5025663;28;20226;-66
2022/07/07 07:45:11;;;;;;;13.20;6.67;;;14.60;99.90;;;;;;5025017;28;20191;-66
2022/07/07 07:47:38;;;;;;;19.23;7.73;;;14.70;99.90;;;;;;5016719;28;20274;-66
2022/07/07 07:50:04;;;;;;;46.37;17.03;;;14.80;99.90;;;;;;5023276;28;20207;-66
2022/07/07 07:52:30;;;;;;;13.90;6.03;;;14.80;99.90;;;;;;5018549;28;20188;-67
2022/07/07 07:54:55;;;;;;;18.57;7.93;;;14.80;99.90;;;;;;5024303;28;20183;-67
2022/07/07 07:57:21;;;;;;;10.33;5.03;;;15.00;99.90;;;;;;5019454;28;20227;-67
2022/07/07 07:59:46;;;;;;;20.73;8.63;;;15.00;99.90;;;;;;5024885;28;20218;-67
2022/07/07 08:02:12;;;;;;;17.80;6.63;;;15.00;99.90;;;;;;5004672;28;20200;-67
2022/07/07 08:04:37;;;;;;;18.27;7.50;;;15.10;99.90;;;;;;5008860;28;20199;-67
2022/07/07 08:07:03;;;;;;;15.17;6.10;;;15.10;99.90;;;;;;5006020;28;20234;-68
2022/07/07 08:09:28;;;;;;;18.90;8.07;;;15.10;99.90;;;;;;5024512;28;20223;-68
2022/07/07 08:11:54;;;;;;;18.27;7.63;;;15.10;99.90;;;;;;5008539;28;20666;-68
2022/07/07 08:14:19;;;;;;;17.57;7.13;;;15.20;99.90;;;;;;5025208;28;20187;-73
2022/07/07 08:16:45;;;;;;;24.73;9.50;;;15.30;99.90;;;;;;5011523;28;20276;-81
2022/07/07 08:19:11;;;;;;;22.83;8.80;;;15.50;99.90;;;;;;5029668;28;20740;-75
2022/07/07 08:21:36;;;;;;;16.97;6.83;;;15.50;99.90;;;;;;5008342;28;20196;-74
2022/07/07 08:24:02;;;;;;;20.43;8.07;;;15.30;99.90;;;;;;5024581;28;20679;-73
2022/07/07 08:26:28;;;;;;;19.90;8.23;;;15.20;99.90;;;;;;5011256;28;20200;-76
2022/07/07 08:28:53;;;;;;;16.30;6.70;;;15.30;99.90;;;;;;5024088;28;20207;-75
2022/07/07 08:31:19;;;;;;;14.70;6.20;;;15.30;99.90;;;;;;5018742;28;20204;-75
2022/07/07 08:33:44;;;;;;;22.57;8.57;;;15.30;99.90;;;;;;5024487;28;20229;-75
2022/07/07 08:36:10;;;;;;;19.60;7.50;;;15.30;99.90;;;;;;5017945;28;20208;-75
2022/07/07 08:38:36;;;;;;;21.10;8.00;;;15.40;99.90;;;;;;5024207;28;20211;-75
2022/07/07 08:41:03;;;;;;;17.93;6.70;;;15.50;99.90;;;;;;5020901;28;20199;-75
2022/07/07 08:43:29;;;;;;;24.50;8.57;;;15.60;99.90;;;;;;5024382;28;20370;-75
2022/07/07 08:45:55;;;;;;;19.03;7.10;;;15.60;99.90;;;;;;5006737;28;20820;-77
2022/07/07 08:48:21;;;;;;;12.43;5.00;;;15.50;99.90;;;;;;5024259;28;20211;-76
2022/07/07 08:50:47;;;;;;;19.03;7.37;;;15.60;99.90;;;;;;5008742;28;20210;-76
2022/07/07 08:53:13;;;;;;;16.00;6.23;;;15.50;99.90;;;;;;5025206;28;20195;-79
2022/07/07 08:55:41;;;;;;;19.83;7.67;;;15.50;99.90;;;;;;5013469;28;20656;-75
2022/07/07 08:58:09;;;;;;;17.50;6.80;;;15.50;99.90;;;;;;5020555;28;20188;-80
2022/07/07 09:00:35;;;;;;;19.77;7.33;;;15.60;99.90;;;;;;5012363;28;20204;-75
2022/07/07 09:03:05;;;;;;;18.53;7.17;;;15.50;99.90;;;;;;5006605;28;20253;-73
2022/07/07 09:05:37;;;;;;;19.53;7.73;;;15.60;99.90;;;;;;5006217;28;20204;-73
2022/07/07 09:08:16;;;;;;;19.67;7.53;;;15.70;99.90;;;;;;5004900;28;20180;-74
2022/07/07 09:10:42;;;;;;;21.60;8.40;;;16.00;99.90;;;;;;5003787;28;20200;-75
2022/07/07 09:13:30;;;;;;;20.63;7.73;;;16.20;99.90;;;;;;5008990;28;20682;-73
2022/07/07 09:15:58;;;;;;;21.10;7.90;;;16.40;99.90;;;;;;5006432;28;20662;-74
2022/07/07 09:18:35;;;;;;;20.50;8.13;;;16.30;99.90;;;;;;5004676;28;21030;-77
2022/07/07 09:21:04;;;;;;;27.50;9.70;;;16.40;99.90;;;;;;5010524;28;20281;-76
2022/07/07 09:23:31;;;;;;;19.00;6.73;;;16.50;99.90;;;;;;5024570;28;20623;-75
2022/07/07 09:25:57;;;;;;;21.53;8.20;;;16.30;99.90;;;;;;5009662;28;20211;-75
2022/07/07 09:28:25;;;;;;;15.93;7.03;;;16.10;99.90;;;;;;5015233;28;20196;-75
2022/07/07 09:30:50;;;;;;;16.90;6.50;;;16.10;99.90;;;;;;5021382;28;20227;-73
2022/07/07 09:33:21;;;;;;;23.20;8.30;;;16.10;99.90;;;;;;5012864;28;20227;-80
2022/07/07 09:38:34;;;;;;;24.20;8.53;;;16.10;99.90;;;;;;5010128;28;20257;-74
2022/07/07 09:41:05;;;;;;;15.17;6.63;;;16.20;99.90;;;;;;5025480;28;20207;-74
2022/07/07 09:43:33;;;;;;;23.37;9.03;;;16.40;99.90;;;;;;5008778;28;20200;-75
2022/07/07 09:46:23;;;;;;;16.60;7.07;;;16.60;99.90;;;;;;5027865;28;20227;-76
2022/07/07 09:48:59;;;;;;;14.13;6.53;;;16.70;99.90;;;;;;5005214;28;20244;-75
2022/07/07 09:51:32;;;;;;;13.13;5.40;;;16.70;99.90;;;;;;5006252;28;20191;-72
2022/07/07 09:54:12;;;;;;;11.30;5.67;;;16.80;99.90;;;;;;5011431;28;20203;-74
2022/07/07 09:56:39;;;;;;;14.73;6.63;;;16.80;99.90;;;;;;4997609;28;20231;-73
2022/07/07 09:59:07;;;;;;;22.73;8.73;;;16.80;99.90;;;;;;5024738;28;20233;-75
2022/07/07 10:01:35;;;;;;;16.97;7.30;;;16.70;99.90;;;;;;5014200;28;20326;-75
2022/07/07 10:04:04;;;;;;;13.50;6.80;;;16.70;99.90;;;;;;5027185;28;20219;-74
2022/07/07 10:06:32;;;;;;;17.40;7.57;;;16.90;99.90;;;;;;5023563;28;20546;-75
2022/07/07 10:09:05;;;;;;;13.33;6.07;;;16.90;99.90;;;;;;5016814;28;20208;-74
2022/07/07 10:11:45;;;;;;;15.07;6.27;;;17.10;99.90;;;;;;5013880;28;20674;-78
2022/07/07 10:14:27;;;;;;;14.87;6.63;;;17.10;99.90;;;;;;4993572;28;20191;-74
2022/07/07 10:16:53;;;;;;;13.87;6.33;;;17.10;99.90;;;;;;5006244;28;20207;-73
2022/07/07 10:19:21;;;;;;;14.97;6.67;;;17.20;99.90;;;;;;5022486;28;20205;-80
2022/07/07 10:21:49;;;;;;;14.90;6.60;;;17.10;99.90;;;;;;5015757;28;20204;-76
2022/07/07 10:24:17;;;;;;;21.00;8.67;;;17.10;99.90;;;;;;5026696;28;20749;-76
2022/07/07 10:26:51;;;;;;;16.80;7.50;;;17.20;99.90;;;;;;5013063;28;20232;-75
2022/07/07 10:29:17;;;;;;;18.90;8.07;;;17.10;99.90;;;;;;5011107;28;20277;-75
2022/07/07 10:31:50;;;;;;;22.83;9.80;;;17.10;99.90;;;;;;5012690;28;20200;-74
2022/07/07 10:34:16;;;;;;;22.13;8.40;;;17.10;99.90;;;;;;4996961;28;20392;-76
2022/07/07 10:36:51;;;;;;;16.80;7.70;;;17.10;99.90;;;;;;5025604;28;20556;-75
2022/07/07 10:39:20;;;;;;;23.60;9.70;;;17.10;99.90;;;;;;5011465;28;20223;-76
2022/07/07 10:42:03;;;;;;;15.23;7.27;;;17.20;99.90;;;;;;5026345;28;20275;-77
2022/07/07 10:44:30;;;;;;;18.57;7.97;;;17.10;99.90;;;;;;5013592;28;20196;-76
2022/07/07 10:47:25;;;;;;;19.80;8.73;;;17.10;99.90;;;;;;5024921;28;20234;-76
2022/07/07 10:49:53;;;;;;;15.90;7.63;;;16.90;99.90;;;;;;5001364;28;20220;-75
2022/07/07 10:52:21;;;;;;;19.87;7.80;;;16.90;99.90;;;;;;5026012;28;20195;-74
2022/07/07 10:54:59;;;;;;;17.83;8.50;;;16.80;99.90;;;;;;5020301;28;20200;-72
2022/07/07 10:57:26;;;;;;;16.07;8.03;;;16.90;99.90;;;;;;5005319;28;20225;-75
2022/07/07 11:00:08;;;;;;;18.23;8.37;;;17.00;99.90;;;;;;5008445;28;20219;-73
2022/07/07 11:02:50;;;;;;;26.07;11.40;;;16.90;99.90;;;;;;4998654;28;20545;-73
2022/07/07 11:05:15;;;;;;;20.20;9.27;;;17.00;99.90;;;;;;5006140;28;20454;-77
2022/07/07 11:07:42;;;;;;;16.10;7.80;;;16.90;99.90;;;;;;5025528;28;20784;-75
2022/07/07 11:10:13;;;;;;;15.50;8.17;;;16.90;99.90;;;;;;5020342;28;20257;-75
2022/07/07 11:12:53;;;;;;;24.03;9.47;;;17.10;99.90;;;;;;5021418;28;20294;-74
2022/07/07 11:15:21;;;;;;;16.80;8.60;;;17.00;99.90;;;;;;5020493;28;20559;-74
2022/07/07 11:17:52;;;;;;;18.70;9.23;;;17.10;99.90;;;;;;5014039;28;20239;-75
2022/07/07 11:20:20;;;;;;;21.70;10.27;;;17.20;99.90;;;;;;5001901;28;20259;-76
2022/07/07 11:22:49;;;;;;;17.07;8.33;;;17.10;99.90;;;;;;5025412;28;20229;-73
2022/07/07 11:25:18;;;;;;;17.60;8.60;;;17.30;99.90;;;;;;5004505;28;20197;-73
2022/07/07 11:27:44;;;;;;;16.33;8.60;;;17.40;99.90;;;;;;5024906;28;20188;-72
2022/07/07 11:30:09;;;;;;;19.27;10.03;;;17.30;99.90;;;;;;5006574;28;20209;-73
2022/07/07 11:32:39;;;;;;;20.20;10.03;;;17.30;99.90;;;;;;5022943;28;20203;-75
2022/07/07 11:35:10;;;;;;;20.00;10.17;;;17.20;99.90;;;;;;5017083;28;20292;-74
2022/07/07 11:37:41;;;;;;;19.73;9.93;;;17.20;99.90;;;;;;5024936;28;20241;-74
2022/07/07 11:40:13;;;;;;;20.83;10.50;;;17.40;99.90;;;;;;5005857;28;20261;-75
2022/07/07 11:42:40;;;;;;;27.90;13.00;;;17.20;99.90;;;;;;5022225;28;20715;-79
2022/07/07 11:45:19;;;;;;;22.57;11.37;;;17.10;99.90;;;;;;5020897;28;20282;-76
2022/07/07 11:47:45;;;;;;;47.00;21.70;;;17.10;99.90;;;;;;5000495;28;20219;-75
2022/07/07 11:50:11;;;;;;;19.70;11.23;;;17.20;99.90;;;;;;5012625;28;20211;-75
2022/07/07 11:52:37;;;;;;;44.10;19.47;;;17.30;99.90;;;;;;5022140;28;20249;-75
2022/07/07 11:55:04;;;;;;;15.07;8.87;;;17.40;99.90;;;;;;5011382;28;20575;-78
2022/07/07 11:57:35;;;;;;;20.50;11.43;;;17.50;99.90;;;;;;5009101;28;20180;-71
2022/07/07 12:00:14;;;;;;;18.93;10.23;;;17.80;99.90;;;;;;5014933;28;20271;-72
2022/07/07 12:02:40;;;;;;;70.83;31.00;;;18.10;99.90;;;;;;5020748;28;20222;-72
2022/07/07 12:05:06;;;;;;;25.50;12.27;;;18.40;99.90;;;;;;5010344;28;20184;-72
2022/07/07 12:07:32;;;;;;;53.50;21.93;;;18.80;99.90;;;;;;5022847;28;20243;-74
2022/07/07 12:09:58;;;;;;;24.57;11.03;;;19.10;99.90;;;;;;5009147;28;20190;-76
2022/07/07 12:12:23;;;;;;;22.43;10.87;;;19.70;99.90;;;;;;5020411;28;20286;-75
2022/07/07 12:14:49;;;;;;;24.87;10.63;;;20.60;99.90;;;;;;5015070;28;20651;-75
2022/07/07 12:17:33;;;;;;;21.33;10.13;;;21.70;99.90;;;;;;5013976;28;20214;-74
2022/07/07 12:19:59;;;;;;;30.43;21.20;;;22.40;99.90;;;;;;5004406;28;20212;-74
2022/07/07 12:22:35;;;;;;;22.00;10.30;;;22.20;99.90;;;;;;5017502;28;20183;-74
2022/07/07 12:25:06;;;;;;;24.40;11.60;;;21.80;99.90;;;;;;5018611;28;20651;-71
2022/07/07 12:27:32;;;;;;;40.53;19.60;;;21.80;99.90;;;;;;5004391;28;20259;-72
2022/07/07 12:30:03;;;;;;;27.90;10.97;;;21.70;99.90;;;;;;5014175;28;20856;-85
2022/07/07 12:32:28;;;;;;;34.33;19.13;;;21.50;99.90;;;;;;5004910;28;20249;-71
2022/07/07 12:34:54;;;;;;;18.37;8.37;;;21.00;99.90;;;;;;5010254;28;20182;-72
2022/07/07 12:37:19;;;;;;;18.63;8.70;;;20.70;99.90;;;;;;5004869;28;20629;-76
2022/07/07 12:39:50;;;;;;;4.50;4.10;;;20.30;99.90;;;;;;5015216;28;20222;-75